createdAt,value
2018-03-24T00:00:52.869Z,93721.66
2018-03-24T00:03:56.136Z,93713.59
2018-03-24T00:07:00.282Z,93712.28
2018-03-24T00:10:04.677Z,93705.30
2018-03-24T00:13:07.950Z,93702.69
2018-03-24T00:16:11.222Z,93701.31
2018-03-24T00:19:14.489Z,93699.23
2018-03-24T00:22:17.939Z,93700.03
2018-03-24T00:25:21.223Z,93695.48
2018-03-24T00:28:24.484Z,93694.71
2018-03-24T00:31:28.521Z,93692.95
2018-03-24T00:34:31.780Z,93689.36
2018-03-24T00:37:35.917Z,93684.81
2018-03-24T00:40:39.940Z,93682.05
2018-03-24T00:43:43.208Z,93681.37
2018-03-24T00:46:46.546Z,93674.50
2018-03-24T00:49:49.831Z,93674.85
2018-03-24T00:52:53.129Z,93669.23
2018-03-24T00:55:56.462Z,93666.91
2018-03-24T00:58:59.742Z,93662.36
2018-03-24T01:02:03.004Z,93659.66
2018-03-24T01:05:07.127Z,93656.30
2018-03-24T01:08:11.172Z,93654.19
2018-03-24T01:11:14.449Z,93647.38
2018-03-24T01:14:17.833Z,93644.41
2018-03-24T01:17:21.894Z,93640.48
2018-03-24T01:20:25.183Z,93641.41
2018-03-24T01:23:28.476Z,93640.16
2018-03-24T01:26:31.742Z,93641.75
2018-03-24T01:29:35.881Z,93641.55
2018-03-24T01:32:39.168Z,93640.16
2018-03-24T01:35:42.448Z,93636.03
2018-03-24T01:38:46.502Z,93630.77
2018-03-24T01:41:49.799Z,93633.20
2018-03-24T01:44:53.048Z,93631.85
2018-03-24T01:47:56.317Z,93630.75
2018-03-24T01:50:59.586Z,93630.49
2018-03-24T01:54:02.876Z,93618.58
2018-03-24T01:57:06.472Z,93619.80
2018-03-24T02:00:10.495Z,93619.03
2018-03-24T02:03:13.768Z,93611.77
2018-03-24T02:06:18.075Z,93611.81
2018-03-24T02:09:21.420Z,93603.48
2018-03-24T02:12:24.701Z,93601.97
2018-03-24T02:15:28.745Z,93599.75
2018-03-24T02:18:32.081Z,93592.86
2018-03-24T02:21:51.089Z,93584.94
2018-03-24T02:24:54.371Z,93586.27
2018-03-24T02:27:58.432Z,93580.58
2018-03-24T02:31:01.721Z,93578.81
2018-03-24T02:34:05.026Z,93578.22
2018-03-24T02:37:08.319Z,93576.47
2018-03-24T02:40:11.882Z,93568.77
2018-03-24T02:43:15.199Z,93567.70
2018-03-24T02:46:18.482Z,93569.63
2018-03-24T02:49:22.571Z,93572.66
2018-03-24T02:52:26.318Z,93569.16
2018-03-24T02:55:30.366Z,93563.40
2018-03-24T02:58:33.661Z,93560.26
2018-03-24T03:01:36.932Z,93554.14
2018-03-24T03:04:40.284Z,93554.28
2018-03-24T03:07:43.571Z,93551.87
2018-03-24T03:10:46.928Z,93555.78
2018-03-24T03:13:50.311Z,93553.23
2018-03-24T03:16:54.384Z,93545.73
2018-03-24T03:19:57.660Z,93545.10
2018-03-24T03:23:00.922Z,93546.07
2018-03-24T03:26:04.960Z,93542.06
2018-03-24T03:29:08.440Z,93548.18
2018-03-24T03:32:19.907Z,93538.23
2018-03-24T03:35:23.189Z,93533.83
2018-03-24T03:38:26.461Z,93530.83
2018-03-24T03:41:29.752Z,93527.30
2018-03-24T03:44:33.022Z,93527.08
2018-03-24T03:47:36.350Z,93525.44
2018-03-24T03:50:39.617Z,93522.57
2018-03-24T03:53:42.909Z,93528.36
2018-03-24T03:56:46.974Z,93519.67
2018-03-24T03:59:51.057Z,93520.71
2018-03-24T04:02:54.341Z,93517.59
2018-03-24T04:05:58.565Z,93518.76
2018-03-24T04:09:02.138Z,93511.56
2018-03-24T04:12:05.464Z,93512.14
2018-03-24T04:15:09.523Z,93509.25
2018-03-24T04:18:12.917Z,93517.72
2018-03-24T04:21:16.192Z,93512.58
2018-03-24T04:24:19.486Z,93510.06
2018-03-24T04:27:22.785Z,93513.91
2018-03-24T04:30:26.065Z,93507.02
2018-03-24T04:33:30.112Z,93504.08
2018-03-24T04:36:33.425Z,93497.53
2018-03-24T04:39:36.799Z,93494.69
2018-03-24T04:42:40.101Z,93493.91
2018-03-24T04:45:43.386Z,93489.69
2018-03-24T04:48:46.665Z,93493.06
2018-03-24T04:51:50.706Z,93490.41
2018-03-24T04:54:54.005Z,93486.74
2018-03-24T04:57:57.594Z,93486.89
2018-03-24T05:01:01.647Z,93485.30
2018-03-24T05:04:04.957Z,93484.95
2018-03-24T05:07:08.249Z,93477.11
2018-03-24T05:10:11.539Z,93474.61
2018-03-24T05:13:14.866Z,93474.30
2018-03-24T05:16:18.145Z,93472.44
2018-03-24T05:19:21.437Z,93468.23
2018-03-24T05:22:24.804Z,93467.08
2018-03-24T05:25:28.085Z,93463.41
2018-03-24T05:28:32.170Z,93458.48
2018-03-24T05:31:35.465Z,93462.48
2018-03-24T05:34:38.793Z,93460.25
2018-03-24T05:37:44.106Z,93458.44
2018-03-24T05:40:47.802Z,93460.34
2018-03-24T05:43:55.531Z,93458.77
2018-03-24T05:46:58.901Z,93460.30
2018-03-24T05:50:03.181Z,93459.20
2018-03-24T05:53:07.983Z,93457.31
2018-03-24T05:56:11.277Z,93461.36
2018-03-24T05:59:14.860Z,93459.28
2018-03-24T06:02:18.255Z,93461.05
2018-03-24T06:05:21.554Z,93458.52
2018-03-24T06:08:25.983Z,93464.89
2018-03-24T06:11:29.997Z,93460.59
2018-03-24T06:14:33.317Z,93456.80
2018-03-24T06:17:36.700Z,93456.76
2018-03-24T06:20:40.120Z,93456.33
2018-03-24T06:23:43.678Z,93455.86
2018-03-24T06:26:46.937Z,93458.39
2018-03-24T06:29:50.252Z,93448.39
2018-03-24T06:32:53.518Z,93451.85
2018-03-24T06:35:58.711Z,93453.87
2018-03-24T06:39:03.839Z,93445.26
2018-03-24T06:42:07.514Z,93445.27
2018-03-24T06:45:11.354Z,93441.66
2018-03-24T06:48:14.616Z,93440.11
2018-03-24T06:51:17.926Z,93437.05
2018-03-24T06:54:22.037Z,93439.70
2018-03-24T06:57:25.444Z,93436.86
2018-03-24T07:00:28.756Z,93443.10
2018-03-24T07:03:32.021Z,93442.61
2018-03-24T07:06:35.295Z,93443.83
2018-03-24T07:09:39.334Z,93438.24
2018-03-24T07:12:42.884Z,93446.20
2018-03-24T07:15:46.987Z,93445.80
2018-03-24T07:18:51.747Z,93450.84
2018-03-24T07:21:55.277Z,93452.13
2018-03-24T07:24:58.630Z,93450.19
2018-03-24T07:28:01.936Z,93455.61
2018-03-24T07:31:05.259Z,93457.11
2018-03-24T07:34:09.515Z,93449.97
2018-03-24T07:37:12.840Z,93456.08
2018-03-24T07:40:16.115Z,93448.17
2018-03-24T07:43:19.602Z,93456.92
2018-03-24T07:46:22.886Z,93454.77
2018-03-24T07:49:28.086Z,93460.73
2018-03-24T07:52:31.507Z,93460.63
2018-03-24T07:55:36.367Z,93456.25
2018-03-24T07:58:40.468Z,93463.30
2018-03-24T08:01:43.883Z,93459.38
2018-03-24T08:04:47.795Z,93461.67
2018-03-24T08:07:51.107Z,93467.53
2018-03-24T08:10:54.968Z,93461.45
2018-03-24T08:13:59.751Z,93461.59
2018-03-24T08:17:03.109Z,93457.37
2018-03-24T08:20:06.419Z,93457.45
2018-03-24T08:23:09.674Z,93460.23
2018-03-24T08:26:12.940Z,93454.16
2018-03-24T08:29:16.261Z,93454.05
2018-03-24T08:32:19.635Z,93453.16
2018-03-24T08:35:23.673Z,93447.62
2018-03-24T08:38:27.006Z,93450.24
2018-03-24T08:41:30.284Z,93451.72
2018-03-24T08:44:34.358Z,93451.63
2018-03-24T08:47:38.585Z,93449.69
2018-03-24T08:50:41.873Z,93455.61
2018-03-24T08:53:46.138Z,93451.77
2018-03-24T08:56:49.973Z,93453.77
2018-03-24T08:59:53.260Z,93446.30
2018-03-24T09:02:56.605Z,93449.98
2018-03-24T09:06:01.126Z,93450.78
2018-03-24T09:09:05.552Z,93444.00
2018-03-24T09:12:08.886Z,93442.79
2018-03-24T09:15:12.148Z,93445.08
2018-03-24T09:18:16.414Z,93449.75
2018-03-24T09:21:19.690Z,93439.66
2018-03-24T09:24:23.036Z,93439.13
2018-03-24T09:27:26.359Z,93440.93
2018-03-24T09:30:29.623Z,93437.66
2018-03-24T09:33:32.870Z,93434.22
2018-03-24T09:36:36.272Z,93427.23
2018-03-24T09:39:39.746Z,93436.20
2018-03-24T09:42:43.770Z,93422.58
2018-03-24T09:45:47.944Z,93434.76
2018-03-24T09:48:51.601Z,93438.77
2018-03-24T09:51:56.463Z,93430.77
2018-03-24T09:54:59.734Z,93431.28
2018-03-24T09:58:02.989Z,93427.31
2018-03-24T10:01:06.297Z,93430.80
2018-03-24T10:04:09.572Z,93429.66
2018-03-24T10:07:12.824Z,93430.17
2018-03-24T10:10:16.109Z,93429.84
2018-03-24T10:13:19.388Z,93436.06
2018-03-24T10:16:23.620Z,93433.02
2018-03-24T10:19:27.697Z,93438.11
2018-03-24T10:22:44.373Z,93427.13
2018-03-24T10:25:47.646Z,93420.12
2018-03-24T10:28:51.711Z,93430.55
2018-03-24T10:31:54.994Z,93414.85
2018-03-24T10:35:04.707Z,93422.23
2018-03-24T10:38:09.035Z,93412.56
2018-03-24T10:41:13.074Z,93413.96
2018-03-24T10:44:16.352Z,93417.64
2018-03-24T10:47:20.415Z,93413.88
2018-03-24T10:50:23.733Z,93411.81
2018-03-24T10:53:27.186Z,93419.86
2018-03-24T10:56:31.088Z,93411.70
2018-03-24T10:59:34.382Z,93416.55
2018-03-24T11:02:38.414Z,93415.06
2018-03-24T11:05:41.745Z,93412.65
2018-03-24T11:08:45.009Z,93420.52
2018-03-24T11:11:48.344Z,93423.67
2018-03-24T11:14:52.419Z,93418.30
2018-03-24T11:17:55.742Z,93415.41
2018-03-24T11:20:59.118Z,93423.84
2018-03-24T11:24:02.399Z,93421.05
2018-03-24T11:27:06.424Z,93431.94
2018-03-24T11:30:09.696Z,93422.38
2018-03-24T11:33:14.082Z,93421.20
2018-03-24T11:36:17.349Z,93421.50
2018-03-24T11:39:20.625Z,93420.80
2018-03-24T11:42:24.663Z,93439.45
2018-03-24T11:45:27.931Z,93423.25
2018-03-24T11:48:31.210Z,93432.55
2018-03-24T11:51:35.326Z,93439.17
2018-03-24T11:54:44.957Z,93442.00
2018-03-24T11:57:49.017Z,93432.77
2018-03-24T12:00:52.284Z,93437.58
2018-03-24T12:03:56.344Z,93435.00
2018-03-24T12:06:59.722Z,93438.80
2018-03-24T12:10:03.032Z,93438.45
2018-03-24T12:13:06.311Z,93433.17
2018-03-24T12:16:09.590Z,93442.62
2018-03-24T12:19:13.648Z,93429.23
2018-03-24T12:22:16.914Z,93438.34
2018-03-24T12:25:21.204Z,93443.93
2018-03-24T12:28:24.471Z,93443.20
2018-03-24T12:31:27.742Z,93439.70
2018-03-24T12:34:31.005Z,93441.73
2018-03-24T12:37:37.506Z,93440.39
2018-03-24T12:40:40.790Z,93442.54
2018-03-24T12:43:44.108Z,93444.53
2018-03-24T12:46:47.405Z,93438.47
2018-03-24T12:49:50.698Z,93442.27
2018-03-24T12:52:54.064Z,93441.03
2018-03-24T12:55:58.108Z,93436.69
2018-03-24T12:59:01.378Z,93434.24
2018-03-24T13:02:05.456Z,93430.76
2018-03-24T13:05:08.729Z,93429.39
2018-03-24T13:08:11.988Z,93438.69
2018-03-24T13:11:16.076Z,93444.95
2018-03-24T13:14:19.357Z,93438.12
2018-03-24T13:17:22.636Z,93437.78
2018-03-24T13:20:25.925Z,93429.09
2018-03-24T13:23:29.245Z,93433.48
2018-03-24T13:26:32.501Z,93432.48
2018-03-24T13:29:36.649Z,93432.81
2018-03-24T13:32:39.917Z,93437.23
2018-03-24T13:35:44.028Z,93432.19
2018-03-24T13:38:49.316Z,93438.48
2018-03-24T13:41:52.646Z,93444.72
2018-03-24T13:44:55.926Z,93436.28
2018-03-24T13:47:59.324Z,93443.03
2018-03-24T13:51:04.067Z,93445.67
2018-03-24T13:54:07.393Z,93440.16
2018-03-24T13:57:11.446Z,93448.19
2018-03-24T14:00:16.421Z,93441.45
2018-03-24T14:03:19.732Z,93449.92
2018-03-24T14:06:23.813Z,93452.50
2018-03-24T14:09:27.503Z,93454.34
2018-03-24T14:12:30.778Z,93444.69
2018-03-24T14:15:34.045Z,93450.27
2018-03-24T14:18:38.083Z,93450.64
2018-03-24T14:21:42.145Z,93452.89
2018-03-24T14:24:45.777Z,93454.84
2018-03-24T14:27:49.081Z,93454.30
2018-03-24T14:30:52.354Z,93451.24
2018-03-24T14:33:55.650Z,93449.69
2018-03-24T14:36:58.914Z,93453.55
2018-03-24T14:40:02.824Z,93450.64
2018-03-24T14:43:06.094Z,93450.11
2018-03-24T14:46:10.429Z,93451.51
2018-03-24T14:49:14.477Z,93451.87
2018-03-24T14:52:17.934Z,93450.61
2018-03-24T14:55:22.069Z,93445.47
2018-03-24T14:58:25.667Z,93450.68
2018-03-24T15:01:29.988Z,93454.30
2018-03-24T15:04:34.076Z,93459.66
2018-03-24T15:07:38.115Z,93458.70
2018-03-24T15:10:42.146Z,93461.90
2018-03-24T15:13:45.437Z,93459.84
2018-03-24T15:16:48.727Z,93463.22
2018-03-24T15:19:53.040Z,93465.81
2018-03-24T15:22:57.090Z,93461.05
2018-03-24T15:26:00.353Z,93467.97
2018-03-24T15:29:22.309Z,93462.70
2018-03-24T15:32:53.416Z,93462.02
2018-03-24T15:36:14.427Z,93466.14
2018-03-24T15:39:17.743Z,93471.56
2018-03-24T15:42:21.220Z,93467.48
2018-03-24T15:45:24.531Z,93475.70
2018-03-24T15:48:27.803Z,93479.55
2018-03-24T15:51:31.117Z,93478.01
2018-03-24T15:54:35.381Z,93483.47
2018-03-24T15:57:38.655Z,93481.17
2018-03-24T16:00:42.725Z,93478.78
2018-03-24T16:03:46.230Z,93476.73
2018-03-24T16:06:49.550Z,93485.72
2018-03-24T16:09:52.822Z,93485.89
2018-03-24T16:12:56.163Z,93491.58
2018-03-24T16:15:59.429Z,93493.34
2018-03-24T16:19:02.800Z,93501.58
2018-03-24T16:22:06.058Z,93500.42
2018-03-24T16:25:09.336Z,93504.43
2018-03-24T16:28:12.780Z,93502.77
2018-03-24T16:31:16.084Z,93511.68
2018-03-24T16:34:19.363Z,93512.01
2018-03-24T16:37:23.434Z,93519.94
2018-03-24T16:40:26.718Z,93514.05
2018-03-24T16:43:30.298Z,93522.96
2018-03-24T16:46:34.475Z,93519.12
2018-03-24T16:49:37.869Z,93527.30
2018-03-24T16:52:41.153Z,93530.01
2018-03-24T16:55:46.541Z,93529.52
2018-03-24T16:58:50.530Z,93540.34
2018-03-24T17:01:54.313Z,93537.95
2018-03-24T17:04:57.586Z,93544.31
2018-03-24T17:08:00.853Z,93549.32
2018-03-24T17:11:04.380Z,93553.59
2018-03-24T17:14:08.466Z,93553.69
2018-03-24T17:17:11.799Z,93554.78
2018-03-24T17:20:15.075Z,93563.75
2018-03-24T17:23:18.414Z,93563.30
2018-03-24T17:26:21.702Z,93565.09
2018-03-24T17:29:24.986Z,93565.53
2018-03-24T17:32:29.273Z,93570.50
2018-03-24T17:35:32.913Z,93563.96
2018-03-24T17:38:37.033Z,93574.19
2018-03-24T17:41:41.285Z,93572.45
2018-03-24T17:44:44.677Z,93571.23
2018-03-24T17:47:47.965Z,93580.11
2018-03-24T17:50:51.253Z,93583.87
2018-03-24T17:53:54.673Z,93577.92
2018-03-24T17:56:57.940Z,93585.98
2018-03-24T18:00:01.978Z,93585.41
2018-03-24T18:03:05.229Z,93588.20
2018-03-24T18:06:08.732Z,93589.96
2018-03-24T18:09:12.810Z,93602.59
2018-03-24T18:12:16.113Z,93604.19
2018-03-24T18:15:19.613Z,93603.22
2018-03-24T18:18:22.899Z,93610.00
2018-03-24T18:21:26.322Z,93601.52
2018-03-24T18:24:29.850Z,93604.41
2018-03-24T18:27:33.118Z,93605.19
2018-03-24T18:30:36.390Z,93608.56
2018-03-24T18:33:39.784Z,93612.94
2018-03-24T18:36:43.060Z,93619.02
2018-03-24T18:39:47.234Z,93618.77
2018-03-24T18:42:50.512Z,93629.45
2018-03-24T18:45:53.855Z,93635.75
2018-03-24T18:48:58.029Z,93638.70
2018-03-24T18:52:01.305Z,93637.93
2018-03-24T18:55:05.364Z,93639.01
2018-03-24T18:58:08.658Z,93638.81
2018-03-24T19:01:11.939Z,93634.41
2018-03-24T19:04:15.217Z,93639.35
2018-03-24T19:07:18.719Z,93643.57
2018-03-24T19:10:22.071Z,93646.06
2018-03-24T19:13:25.667Z,93645.22
2018-03-24T19:16:29.084Z,93642.28
2018-03-24T19:19:32.912Z,93644.00
2018-03-24T19:22:37.040Z,93641.80
2018-03-24T19:25:40.721Z,93651.60
2018-03-24T19:28:44.082Z,93641.11
2018-03-24T19:31:47.547Z,93652.30
2018-03-24T19:34:51.606Z,93650.45
2018-03-24T19:37:54.973Z,93653.32
2018-03-24T19:40:58.257Z,93658.41
2018-03-24T19:44:02.300Z,93657.57
2018-03-24T19:47:05.594Z,93661.28
2018-03-24T19:50:10.429Z,93656.50
2018-03-24T19:53:14.442Z,93660.59
2018-03-24T19:56:17.753Z,93664.52
2018-03-24T19:59:21.133Z,93660.20
2018-03-24T20:02:24.681Z,93665.51
2018-03-24T20:05:28.085Z,93667.58
2018-03-24T20:08:31.432Z,93664.50
2018-03-24T20:11:34.714Z,93671.24
2018-03-24T20:14:38.771Z,93669.83
2018-03-24T20:17:42.069Z,93675.77
2018-03-24T20:20:45.394Z,93676.16
2018-03-24T20:23:48.676Z,93675.72
2018-03-24T20:26:51.995Z,93680.88
2018-03-24T20:29:55.286Z,93676.09
2018-03-24T20:32:58.562Z,93684.61
2018-03-24T20:36:02.100Z,93682.80
2018-03-24T20:39:05.524Z,93685.09
2018-03-24T20:42:09.647Z,93684.38
2018-03-24T20:45:13.697Z,93682.00
2018-03-24T20:48:16.968Z,93690.37
2018-03-24T20:51:20.889Z,93689.98
2018-03-24T20:54:24.167Z,93687.70
2018-03-24T20:57:27.577Z,93684.89
2018-03-24T21:00:30.986Z,93688.52
2018-03-24T21:03:34.254Z,93688.03
2018-03-24T21:06:38.318Z,93686.09
2018-03-24T21:09:41.618Z,93688.77
2018-03-24T21:12:44.887Z,93687.48
2018-03-24T21:15:48.200Z,93686.31
2018-03-24T21:18:52.204Z,93690.97
2018-03-24T21:21:55.494Z,93693.44
2018-03-24T21:24:58.998Z,93693.55
2018-03-24T21:28:02.332Z,93693.72
2018-03-24T21:31:05.616Z,93691.97
2018-03-24T21:34:08.920Z,93693.80
2018-03-24T21:37:12.218Z,93693.70
2018-03-24T21:40:15.510Z,93698.78
2018-03-24T21:43:18.793Z,93698.15
2018-03-24T21:46:22.085Z,93694.81
2018-03-24T21:49:25.443Z,93703.66
2018-03-24T21:52:29.216Z,93699.34
2018-03-24T21:55:33.091Z,93698.88
2018-03-24T21:58:37.148Z,93696.97
2018-03-24T22:01:40.449Z,93696.44
2018-03-24T22:04:45.121Z,93695.91
2018-03-24T22:07:49.206Z,93696.73
2018-03-24T22:10:52.575Z,93691.83
2018-03-24T22:13:56.538Z,93689.63
2018-03-24T22:16:59.836Z,93687.53
2018-03-24T22:20:07.594Z,93693.02
2018-03-24T22:23:11.205Z,93688.91
2018-03-24T22:26:14.676Z,93691.95
2018-03-24T22:29:18.101Z,93688.76
2018-03-24T22:32:21.395Z,93682.86
2018-03-24T22:35:25.425Z,93690.20
2018-03-24T22:38:28.881Z,93683.00
2018-03-24T22:41:32.189Z,93679.02
2018-03-24T22:44:35.468Z,93681.31
2018-03-24T22:47:38.763Z,93670.95
2018-03-24T22:50:42.043Z,93670.95
2018-03-24T22:53:45.334Z,93672.05
2018-03-24T22:56:48.623Z,93670.44
2018-03-24T22:59:51.979Z,93672.66
2018-03-24T23:02:55.295Z,93672.73
2018-03-24T23:06:00.352Z,93682.16
2018-03-24T23:09:03.657Z,93675.80
2018-03-24T23:12:07.723Z,93677.64
2018-03-24T23:15:11.021Z,93676.58
2018-03-24T23:18:14.317Z,93677.23
2018-03-24T23:21:19.169Z,93681.34
2018-03-24T23:24:23.248Z,93677.40
2018-03-24T23:27:26.526Z,93678.62
2018-03-24T23:30:29.851Z,93690.56
2018-03-24T23:33:33.122Z,93690.69
2018-03-24T23:36:36.430Z,93688.48
2018-03-24T23:39:39.741Z,93688.25
2018-03-24T23:42:43.042Z,93687.59
2018-03-24T23:45:46.670Z,93686.06
2018-03-24T23:48:50.738Z,93684.38
2018-03-24T23:51:54.121Z,93685.82
2018-03-24T23:54:57.416Z,93683.81
2018-03-24T23:58:00.731Z,93684.77
